Time,TemperatureF,DewpointF,PressureIn,WindDirection,WindDirectionDegrees,WindSpeedMPH,WindSpeedGustMPH,Humidity,HourlyPrecipIn,Conditions,Clouds,dailyrainin,SoftwareType,DateUTC
2013-01-14 00:02:00,18.0,6.0,30.14,SSE,147,3.0,6.0,58,0.00,,,0.00,,2013-01-14 08:02:00,
2013-01-14 00:11:00,18.0,6.0,30.14,SSE,147,3.0,6.0,58,0.00,,,0.00,,2013-01-14 08:11:00,
2013-01-14 00:22:00,18.0,6.0,30.14,SSE,158,2.0,3.0,58,0.00,,,0.00,,2013-01-14 08:22:00,
2013-01-14 00:32:00,19.0,6.0,30.11,WSW,248,0.0,3.0,57,0.00,,,0.00,,2013-01-14 08:32:00,
2013-01-14 00:42:00,19.0,6.0,30.11,WSW,248,0.0,3.0,57,0.00,,,0.00,,2013-01-14 08:42:00,
2013-01-14 00:52:00,20.0,7.0,30.11,SSW,202,3.0,6.0,57,0.00,,,0.00,,2013-01-14 08:52:00,
2013-01-14 01:02:00,18.0,5.0,30.14,SSE,158,3.0,5.0,56,0.00,,,0.00,,2013-01-14 09:02:00,
2013-01-14 01:11:00,18.0,5.0,30.14,SSE,158,3.0,5.0,56,0.00,,,0.00,,2013-01-14 09:11:00,
2013-01-14 01:22:00,17.0,4.0,30.14,ESE,119,2.0,3.0,57,0.00,,,0.00,,2013-01-14 09:22:00,
2013-01-14 01:33:00,17.0,4.0,30.14,SSE,158,3.0,3.0,57,0.00,,,0.00,,2013-01-14 09:33:00,
2013-01-14 01:42:00,17.0,4.0,30.14,SSE,158,3.0,3.0,57,0.00,,,0.00,,2013-01-14 09:42:00,
2013-01-14 01:52:00,17.0,4.0,30.14,SSE,158,5.0,5.0,57,0.00,,,0.00,,2013-01-14 09:52:00,
2013-01-14 02:02:00,17.0,4.0,30.14,SE,130,2.0,3.0,57,0.00,,,0.00,,2013-01-14 10:02:00,
2013-01-14 02:11:00,17.0,4.0,30.14,SE,130,2.0,3.0,57,0.00,,,0.00,,2013-01-14 10:11:00,
2013-01-14 02:22:00,16.0,3.0,30.14,SE,134,4.0,6.0,57,0.00,,,0.00,,2013-01-14 10:22:00,
2013-01-14 02:32:00,17.0,4.0,30.14,SE,143,5.0,6.0,57,0.00,,,0.00,,2013-01-14 10:32:00,
2013-01-14 02:42:00,17.0,4.0,30.14,SE,143,5.0,6.0,57,0.00,,,0.00,,2013-01-14 10:42:00,
2013-01-14 02:52:00,17.0,4.0,30.14,SE,144,3.0,5.0,57,0.00,,,0.00,,2013-01-14 10:52:00,
2013-01-14 03:02:00,17.0,4.0,30.14,WSW,248,1.0,2.0,57,0.00,,,0.00,,2013-01-14 11:02:00,
2013-01-14 03:11:00,17.0,4.0,30.14,WSW,248,1.0,2.0,57,0.00,,,0.00,,2013-01-14 11:11:00,
2013-01-14 03:22:00,17.0,4.0,30.14,SE,134,3.0,5.0,57,0.00,,,0.00,,2013-01-14 11:22:00,
2013-01-14 03:32:00,16.0,3.0,30.14,SSE,158,3.0,3.0,57,0.00,,,0.00,,2013-01-14 11:32:00,
2013-01-14 03:42:00,16.0,3.0,30.14,SSE,158,3.0,3.0,57,0.00,,,0.00,,2013-01-14 11:42:00,
2013-01-14 03:53:00,16.0,3.0,30.14,SSE,158,3.0,5.0,57,0.00,,,0.00,,2013-01-14 11:53:00,
2013-01-14 04:02:00,17.0,4.0,30.14,SSE,158,3.0,6.0,56,0.00,,,0.00,,2013-01-14 12:02:00,
2013-01-14 04:12:00,17.0,4.0,30.14,SSE,158,3.0,6.0,56,0.00,,,0.00,,2013-01-14 12:12:00,
2013-01-14 04:22:00,18.0,5.0,30.14,SSE,156,3.0,5.0,56,0.00,,,0.00,,2013-01-14 12:22:00,
2013-01-14 04:33:00,18.0,5.0,30.11,SSE,158,2.0,3.0,56,0.00,,,0.00,,2013-01-14 12:33:00,
2013-01-14 04:42:00,18.0,5.0,30.11,SSE,158,2.0,3.0,56,0.00,,,0.00,,2013-01-14 12:42:00,
2013-01-14 04:52:00,18.0,5.0,30.11,SSE,158,3.0,5.0,56,0.00,,,0.00,,2013-01-14 12:52:00,
2013-01-14 05:03:00,19.0,6.0,30.11,South,174,2.0,8.0,55,0.00,,,0.00,,2013-01-14 13:03:00,
2013-01-14 05:12:00,19.0,6.0,30.11,South,174,2.0,8.0,55,0.00,,,0.00,,2013-01-14 13:12:00,
2013-01-14 05:22:00,19.0,6.0,30.11,SE,142,3.0,5.0,55,0.00,,,0.00,,2013-01-14 13:22:00,
2013-01-14 05:33:00,18.0,5.0,30.11,NNW,338,0.0,2.0,55,0.00,,,0.00,,2013-01-14 13:33:00,
2013-01-14 05:42:00,18.0,5.0,30.11,NNW,338,0.0,2.0,55,0.00,,,0.00,,2013-01-14 13:42:00,
2013-01-14 05:52:00,18.0,5.0,30.11,WSW,248,1.0,2.0,55,0.00,,,0.00,,2013-01-14 13:52:00,
2013-01-14 06:02:00,18.0,5.0,30.11,SSE,158,3.0,3.0,57,0.00,,,0.00,,2013-01-14 14:02:00,
2013-01-14 06:12:00,18.0,5.0,30.11,SSE,158,3.0,3.0,57,0.00,,,0.00,,2013-01-14 14:12:00,
2013-01-14 06:22:00,19.0,6.0,30.11,South,189,3.0,5.0,57,0.00,,,0.00,,2013-01-14 14:22:00,
2013-01-14 06:33:00,19.0,6.0,30.11,SSE,158,2.0,5.0,56,0.00,,,0.00,,2013-01-14 14:33:00,
2013-01-14 06:42:00,19.0,6.0,30.11,SSE,158,2.0,5.0,56,0.00,,,0.00,,2013-01-14 14:42:00,
2013-01-14 06:52:00,19.0,6.0,30.11,SSE,158,2.0,3.0,56,0.00,,,0.00,,2013-01-14 14:52:00,
2013-01-14 07:02:00,19.0,6.0,30.11,SSE,158,3.0,5.0,55,0.00,,,0.00,,2013-01-14 15:02:00,
2013-01-14 07:12:00,19.0,6.0,30.11,SSE,158,3.0,5.0,55,0.00,,,0.00,,2013-01-14 15:12:00,
2013-01-14 07:23:00,19.0,6.0,30.11,SSE,162,3.0,5.0,55,0.00,,,0.00,,2013-01-14 15:23:00,
2013-01-14 07:33:00,20.0,6.0,30.11,SE,135,2.0,3.0,54,0.00,,,0.00,,2013-01-14 15:33:00,
2013-01-14 07:42:00,20.0,6.0,30.11,SE,135,2.0,3.0,54,0.00,,,0.00,,2013-01-14 15:42:00,
2013-01-14 07:53:00,19.0,6.0,30.11,NW,315,0.0,3.0,55,0.00,,,0.00,,2013-01-14 15:53:00,
2013-01-14 08:02:00,19.0,6.0,30.14,SSE,147,2.0,5.0,56,0.00,,,0.00,,2013-01-14 16:02:00,
2013-01-14 08:12:00,19.0,6.0,30.14,SSE,147,2.0,5.0,56,0.00,,,0.00,,2013-01-14 16:12:00,
2013-01-14 08:22:00,20.0,6.0,30.14,SSE,158,5.0,5.0,55,0.00,,,0.00,,2013-01-14 16:22:00,
2013-01-14 08:33:00,22.0,8.0,30.11,SSE,147,5.0,7.0,55,0.00,,,0.00,,2013-01-14 16:33:00,
2013-01-14 08:42:00,22.0,8.0,30.11,SSE,147,5.0,7.0,55,0.00,,,0.00,,2013-01-14 16:42:00,
2013-01-14 08:52:00,23.0,8.0,30.11,SSE,148,7.0,9.0,53,0.00,,,0.00,,2013-01-14 16:52:00,
2013-01-14 09:02:00,25.0,10.0,30.14,West,271,2.0,5.0,52,0.00,,,0.00,,2013-01-14 17:02:00,
2013-01-14 09:11:00,25.0,10.0,30.14,West,271,2.0,5.0,52,0.00,,,0.00,,2013-01-14 17:11:00,
2013-01-14 09:22:00,25.0,10.0,30.14,NW,322,2.0,5.0,53,0.00,,,0.00,,2013-01-14 17:22:00,
2013-01-14 09:33:00,25.0,11.0,30.11,WNW,292,3.0,5.0,54,0.00,,,0.00,,2013-01-14 17:33:00,
2013-01-14 09:42:00,25.0,11.0,30.11,WNW,292,3.0,5.0,54,0.00,,,0.00,,2013-01-14 17:42:00,
2013-01-14 09:53:00,25.0,11.0,30.11,WSW,248,2.0,5.0,54,0.00,,,0.00,,2013-01-14 17:53:00,
2013-01-14 10:02:00,25.0,10.0,30.14,WNW,290,3.0,5.0,53,0.00,,,0.00,,2013-01-14 18:02:00,
2013-01-14 10:12:00,25.0,10.0,30.14,WNW,290,3.0,5.0,53,0.00,,,0.00,,2013-01-14 18:12:00,
2013-01-14 10:22:00,26.0,11.0,30.14,WNW,289,3.0,5.0,53,0.00,,,0.00,,2013-01-14 18:22:00,
2013-01-14 10:33:00,27.0,12.0,30.11,SSE,155,3.0,3.0,52,0.00,,,0.00,,2013-01-14 18:33:00,
2013-01-14 10:42:00,27.0,12.0,30.11,SSE,155,3.0,3.0,52,0.00,,,0.00,,2013-01-14 18:42:00,
2013-01-14 10:52:00,27.0,12.0,30.11,SSE,155,3.0,3.0,52,0.00,,,0.00,,2013-01-14 18:52:00,
2013-01-14 11:02:00,30.0,14.0,30.11,WNW,299,4.0,6.0,50,0.00,,,0.00,,2013-01-14 19:02:00,
2013-01-14 11:12:00,30.0,14.0,30.11,WNW,299,4.0,6.0,50,0.00,,,0.00,,2013-01-14 19:12:00,
2013-01-14 11:22:00,31.0,15.0,30.11,NNW,338,2.0,6.0,51,0.00,,,0.00,,2013-01-14 19:22:00,
2013-01-14 11:32:00,32.0,15.0,30.11,South,186,2.0,5.0,50,0.00,,,0.00,,2013-01-14 19:32:00,
2013-01-14 11:42:00,32.0,15.0,30.11,South,186,2.0,5.0,50,0.00,,,0.00,,2013-01-14 19:42:00,
2013-01-14 11:52:00,33.0,16.0,30.11,NW,310,4.0,8.0,50,0.00,,,0.00,,2013-01-14 19:52:00,
2013-01-14 12:03:00,33.0,16.0,30.11,WNW,292,4.0,10.0,49,0.00,,,0.00,,2013-01-14 20:03:00,
2013-01-14 12:12:00,33.0,16.0,30.11,WNW,292,4.0,10.0,49,0.00,,,0.00,,2013-01-14 20:12:00,
2013-01-14 12:22:00,35.0,17.0,30.11,WNW,292,3.0,8.0,48,0.00,,,0.00,,2013-01-14 20:22:00,
2013-01-14 12:33:00,34.0,15.0,30.11,WSW,253,6.0,7.0,46,0.00,,,0.00,,2013-01-14 20:33:00,
2013-01-14 12:42:00,34.0,15.0,30.11,WSW,253,6.0,7.0,46,0.00,,,0.00,,2013-01-14 20:42:00,
2013-01-14 12:52:00,36.0,18.0,30.11,WSW,239,5.0,8.0,48,0.00,,,0.00,,2013-01-14 20:52:00,
2013-01-14 13:02:00,38.0,18.0,30.08,WNW,292,7.0,10.0,43,0.00,,,0.00,,2013-01-14 21:02:00,
2013-01-14 13:12:00,38.0,18.0,30.08,WNW,292,7.0,10.0,43,0.00,,,0.00,,2013-01-14 21:12:00,
2013-01-14 13:22:00,38.0,18.0,30.08,West,266,6.0,10.0,44,0.00,,,0.00,,2013-01-14 21:22:00,
2013-01-14 13:33:00,38.0,17.0,30.08,WSW,252,7.0,9.0,42,0.00,,,0.00,,2013-01-14 21:33:00,
2013-01-14 13:42:00,38.0,17.0,30.08,WSW,252,7.0,9.0,42,0.00,,,0.00,,2013-01-14 21:42:00,
2013-01-14 13:53:00,38.0,17.0,30.08,WNW,284,6.0,9.0,42,0.00,,,0.00,,2013-01-14 21:53:00,
2013-01-14 14:02:00,39.0,18.0,30.08,WSW,257,6.0,9.0,42,0.00,,,0.00,,2013-01-14 22:02:00,
2013-01-14 14:12:00,39.0,18.0,30.08,WSW,257,6.0,9.0,42,0.00,,,0.00,,2013-01-14 22:12:00,
2013-01-14 14:22:00,39.0,18.0,30.08,West,269,7.0,9.0,42,0.00,,,0.00,,2013-01-14 22:22:00,
2013-01-14 14:32:00,38.0,17.0,30.11,WNW,292,7.0,10.0,42,0.00,,,0.00,,2013-01-14 22:32:00,
2013-01-14 14:42:00,38.0,17.0,30.11,WNW,292,7.0,10.0,42,0.00,,,0.00,,2013-01-14 22:42:00,
2013-01-14 14:52:00,38.0,17.0,30.11,WNW,283,6.0,10.0,42,0.00,,,0.00,,2013-01-14 22:52:00,
2013-01-14 15:02:00,37.0,17.0,30.11,WNW,303,9.0,13.0,43,0.00,,,0.00,,2013-01-14 23:02:00,
2013-01-14 15:12:00,37.0,17.0,30.11,WNW,303,9.0,13.0,43,0.00,,,0.00,,2013-01-14 23:12:00,
2013-01-14 15:22:00,37.0,18.0,30.11,WNW,288,12.0,16.0,45,0.00,,,0.00,,2013-01-14 23:22:00,
2013-01-14 15:32:00,36.0,17.0,30.11,NW,306,9.0,13.0,45,0.00,,,0.00,,2013-01-14 23:32:00,
2013-01-14 15:42:00,36.0,17.0,30.11,NW,306,9.0,13.0,45,0.00,,,0.00,,2013-01-14 23:42:00,
2013-01-14 15:52:00,36.0,17.0,30.11,WNW,292,9.0,13.0,46,0.00,,,0.00,,2013-01-14 23:52:00,
2013-01-14 16:02:00,35.0,18.0,30.14,West,276,7.0,13.0,49,0.00,,,0.00,,2013-01-15 00:02:00,
2013-01-14 16:12:00,35.0,18.0,30.14,West,276,7.0,13.0,49,0.00,,,0.00,,2013-01-15 00:12:00,
2013-01-14 16:22:00,35.0,18.0,30.14,West,261,9.0,12.0,50,0.00,,,0.00,,2013-01-15 00:22:00,
2013-01-14 16:32:00,34.0,18.0,30.14,West,269,6.0,10.0,51,0.00,,,0.00,,2013-01-15 00:32:00,
2013-01-14 16:42:00,34.0,18.0,30.14,West,269,6.0,10.0,51,0.00,,,0.00,,2013-01-15 00:42:00,
2013-01-14 16:52:00,33.0,17.0,30.14,WSW,256,6.0,9.0,52,0.00,,,0.00,,2013-01-15 00:52:00,
2013-01-14 17:02:00,33.0,18.0,30.14,West,273,3.0,6.0,53,0.00,,,0.00,,2013-01-15 01:02:00,
2013-01-14 17:12:00,33.0,18.0,30.14,West,273,3.0,6.0,53,0.00,,,0.00,,2013-01-15 01:12:00,
2013-01-14 17:22:00,32.0,17.0,30.14,West,265,4.0,7.0,53,0.00,,,0.00,,2013-01-15 01:22:00,
2013-01-14 17:32:00,31.0,17.0,30.14,WSW,248,2.0,3.0,55,0.00,,,0.00,,2013-01-15 01:32:00,
2013-01-14 17:42:00,31.0,17.0,30.14,WSW,248,2.0,3.0,55,0.00,,,0.00,,2013-01-15 01:42:00,
2013-01-14 17:52:00,31.0,17.0,30.14,SW,214,2.0,5.0,55,0.00,,,0.00,,2013-01-15 01:52:00,
2013-01-14 18:02:00,31.0,18.0,30.14,SSW,210,2.0,3.0,57,0.00,,,0.00,,2013-01-15 02:02:00,
2013-01-14 18:11:00,31.0,18.0,30.14,SSW,210,2.0,3.0,57,0.00,,,0.00,,2013-01-15 02:11:00,
2013-01-14 18:22:00,30.0,17.0,30.14,SSW,206,1.0,2.0,57,0.00,,,0.00,,2013-01-15 02:22:00,
2013-01-14 18:32:00,30.0,17.0,30.14,SW,224,2.0,3.0,59,0.00,,,0.00,,2013-01-15 02:32:00,
2013-01-14 18:42:00,30.0,17.0,30.14,SW,224,2.0,3.0,59,0.00,,,0.00,,2013-01-15 02:42:00,
2013-01-14 18:52:00,30.0,17.0,30.14,SSW,202,2.0,3.0,59,0.00,,,0.00,,2013-01-15 02:52:00,
2013-01-14 19:02:00,30.0,17.0,30.14,South,171,3.0,5.0,59,0.00,,,0.00,,2013-01-15 03:02:00,
2013-01-14 19:12:00,30.0,17.0,30.14,South,171,3.0,5.0,59,0.00,,,0.00,,2013-01-15 03:12:00,
2013-01-14 19:22:00,30.0,18.0,30.14,South,185,3.0,5.0,60,0.00,,,0.00,,2013-01-15 03:22:00,
2013-01-14 19:32:00,30.0,18.0,30.17,SSW,212,3.0,5.0,60,0.00,,,0.00,,2013-01-15 03:32:00,
2013-01-14 19:42:00,30.0,18.0,30.17,SSW,212,3.0,5.0,60,0.00,,,0.00,,2013-01-15 03:42:00,
2013-01-14 19:52:00,30.0,19.0,30.17,SSW,202,3.0,3.0,62,0.00,,,0.00,,2013-01-15 03:52:00,
2013-01-14 20:02:00,30.0,19.0,30.17,SSW,202,3.0,5.0,62,0.00,,,0.00,,2013-01-15 04:02:00,
2013-01-14 20:12:00,30.0,19.0,30.17,SSW,202,3.0,5.0,62,0.00,,,0.00,,2013-01-15 04:12:00,
2013-01-14 20:22:00,30.0,19.0,30.17,SSW,196,2.0,5.0,62,0.00,,,0.00,,2013-01-15 04:22:00,
2013-01-14 20:32:00,30.0,19.0,30.17,SSW,202,3.0,5.0,63,0.00,,,0.00,,2013-01-15 04:32:00,
2013-01-14 20:42:00,30.0,19.0,30.17,SSW,202,3.0,5.0,63,0.00,,,0.00,,2013-01-15 04:42:00,
2013-01-14 20:52:00,30.0,19.0,30.17,SSW,202,3.0,3.0,63,0.00,,,0.00,,2013-01-15 04:52:00,
2013-01-14 21:03:00,29.0,18.0,30.17,WSW,244,3.0,5.0,63,0.00,,,0.00,,2013-01-15 05:03:00,
2013-01-14 21:12:00,29.0,18.0,30.17,WSW,244,3.0,5.0,63,0.00,,,0.00,,2013-01-15 05:12:00,
2013-01-14 21:22:00,29.0,18.0,30.17,SW,234,3.0,6.0,64,0.00,,,0.00,,2013-01-15 05:22:00,
2013-01-14 21:33:00,29.0,19.0,30.17,SW,223,2.0,5.0,65,0.00,,,0.00,,2013-01-15 05:33:00,
2013-01-14 21:42:00,29.0,19.0,30.17,SW,223,2.0,5.0,65,0.00,,,0.00,,2013-01-15 05:42:00,
2013-01-14 21:52:00,29.0,19.0,30.17,SSW,209,3.0,5.0,65,0.00,,,0.00,,2013-01-15 05:52:00,
2013-01-14 22:02:00,29.0,19.0,30.17,SW,231,3.0,6.0,66,0.00,,,0.00,,2013-01-15 06:02:00,
2013-01-14 22:12:00,29.0,19.0,30.17,SW,231,3.0,6.0,66,0.00,,,0.00,,2013-01-15 06:12:00,
2013-01-14 22:22:00,29.0,19.0,30.17,West,274,6.0,9.0,67,0.00,,,0.00,,2013-01-15 06:22:00,
2013-01-14 22:32:00,29.0,20.0,30.17,WNW,289,3.0,7.0,69,0.00,,,0.00,,2013-01-15 06:32:00,
2013-01-14 22:42:00,29.0,20.0,30.17,WNW,289,3.0,7.0,69,0.00,,,0.00,,2013-01-15 06:42:00,
2013-01-14 22:52:00,29.0,20.0,30.17,WNW,293,1.0,5.0,68,0.00,,,0.00,,2013-01-15 06:52:00,
2013-01-14 23:02:00,28.0,19.0,30.20,WSW,242,0.0,2.0,68,0.00,,,0.00,,2013-01-15 07:02:00,
2013-01-14 23:12:00,28.0,19.0,30.20,WSW,242,0.0,2.0,68,0.00,,,0.00,,2013-01-15 07:12:00,
2013-01-14 23:22:00,28.0,18.0,30.20,SSW,198,2.0,3.0,67,0.00,,,0.00,,2013-01-15 07:22:00,
2013-01-14 23:32:00,27.0,18.0,30.20,SE,129,2.0,3.0,67,0.00,,,0.00,,2013-01-15 07:32:00,
2013-01-14 23:42:00,27.0,18.0,30.20,SE,129,2.0,3.0,67,0.00,,,0.00,,2013-01-15 07:42:00,
2013-01-14 23:52:00,27.0,18.0,30.20,SSE,151,2.0,3.0,67,0.00,,,0.00,,2013-01-15 07:52:00,